createdAt,value
2018-11-26T00:00:50.105Z,100912.70
2018-11-26T00:03:18.351Z,100906.14
2018-11-26T00:05:46.633Z,100911.52
2018-11-26T00:08:14.849Z,100911.69
2018-11-26T00:11:21.890Z,100912.63
2018-11-26T00:13:50.134Z,100916.05
2018-11-26T00:16:18.410Z,100912.20
2018-11-26T00:18:46.705Z,100909.97
2018-11-26T00:21:14.891Z,100906.17
2018-11-26T00:23:43.107Z,100907.08
2018-11-26T00:26:11.386Z,100908.92
2018-11-26T00:28:39.610Z,100906.81
2018-11-26T00:31:07.894Z,100909.09
2018-11-26T00:33:36.106Z,100908.28
2018-11-26T00:36:04.318Z,100907.86
2018-11-26T00:38:32.592Z,100913.64
2018-11-26T00:41:00.848Z,100910.14
2018-11-26T00:43:29.225Z,100911.02
2018-11-26T00:45:57.475Z,100904.95
2018-11-26T00:48:25.755Z,100910.80
2018-11-26T00:50:53.971Z,100913.00
2018-11-26T00:53:22.226Z,100913.10
2018-11-26T00:55:50.568Z,100910.05
2018-11-26T00:58:18.832Z,100901.67
2018-11-26T01:00:47.062Z,100909.62
2018-11-26T01:03:15.330Z,100913.26
2018-11-26T01:05:43.615Z,100907.16
2018-11-26T01:08:11.883Z,100914.27
2018-11-26T01:10:40.149Z,100914.79
2018-11-26T01:13:08.605Z,100913.48
2018-11-26T01:15:36.837Z,100909.94
2018-11-26T01:18:05.738Z,100918.77
2018-11-26T01:20:34.005Z,100920.58
2018-11-26T01:23:02.255Z,100915.71
2018-11-26T01:25:30.505Z,100912.68
2018-11-26T01:27:58.770Z,100905.20
2018-11-26T01:30:27.015Z,100905.63
2018-11-26T01:32:55.291Z,100907.03
2018-11-26T01:35:23.551Z,100908.78
2018-11-26T01:37:51.783Z,100910.65
2018-11-26T01:40:21.363Z,100912.82
2018-11-26T01:42:49.892Z,100909.77
2018-11-26T01:45:18.148Z,100914.20
2018-11-26T01:47:46.392Z,100910.26
2018-11-26T01:50:14.667Z,100906.72
2018-11-26T01:52:42.912Z,100907.63
2018-11-26T01:55:11.428Z,100911.59
2018-11-26T01:57:39.697Z,100907.63
2018-11-26T02:00:27.506Z,100899.73
2018-11-26T02:02:55.781Z,100895.36
2018-11-26T02:05:24.159Z,100886.05
2018-11-26T02:07:52.405Z,100877.67
2018-11-26T02:10:21.027Z,100873.30
2018-11-26T02:12:49.296Z,100882.56
2018-11-26T02:15:37.439Z,100883.03
2018-11-26T02:18:05.818Z,100882.66
2018-11-26T02:20:34.157Z,100872.00
2018-11-26T02:23:02.383Z,100875.17
2018-11-26T02:25:30.644Z,100883.05
2018-11-26T02:27:58.858Z,100874.31
2018-11-26T02:30:27.131Z,100876.92
2018-11-26T02:32:55.398Z,100869.01
2018-11-26T02:35:23.683Z,100872.08
2018-11-26T02:37:52.808Z,100869.44
2018-11-26T02:40:40.476Z,100861.95
2018-11-26T02:43:08.720Z,100868.58
2018-11-26T02:45:36.969Z,100869.91
2018-11-26T02:48:05.630Z,100866.83
2018-11-26T02:50:33.900Z,100861.97
2018-11-26T02:53:02.185Z,100866.85
2018-11-26T02:55:49.833Z,100866.42
2018-11-26T02:58:18.084Z,100865.50
2018-11-26T03:00:47.073Z,100865.95
2018-11-26T03:03:16.069Z,100864.63
2018-11-26T03:05:44.376Z,100857.55
2018-11-26T03:08:12.627Z,100865.52
2018-11-26T03:10:40.892Z,100856.65
2018-11-26T03:13:09.113Z,100857.52
2018-11-26T03:15:37.441Z,100865.45
2018-11-26T03:18:05.660Z,100865.88
2018-11-26T03:20:33.909Z,100872.47
2018-11-26T03:23:02.176Z,100880.03
2018-11-26T03:25:30.420Z,100882.66
2018-11-26T03:27:58.662Z,100883.94
2018-11-26T03:30:26.938Z,100885.73
2018-11-26T03:32:55.168Z,100882.66
2018-11-26T03:35:23.388Z,100885.72
2018-11-26T03:37:51.673Z,100886.59
2018-11-26T03:40:19.921Z,100894.13
2018-11-26T03:42:48.172Z,100899.92
2018-11-26T03:45:19.517Z,100894.65
2018-11-26T03:47:47.704Z,100904.34
2018-11-26T03:50:15.933Z,100887.57
2018-11-26T03:52:44.739Z,100893.72
2018-11-26T03:55:13.469Z,100886.67
2018-11-26T03:57:41.780Z,100893.75
2018-11-26T04:00:14.427Z,100899.95
2018-11-26T04:02:42.700Z,100896.88
2018-11-26T04:05:11.386Z,100903.89
2018-11-26T04:07:39.695Z,100906.55
2018-11-26T04:10:11.932Z,100898.17
2018-11-26T04:12:40.214Z,100899.03
2018-11-26T04:15:10.225Z,100903.50
2018-11-26T04:17:38.503Z,100906.14
2018-11-26T04:20:07.719Z,100904.34
2018-11-26T04:22:35.974Z,100906.97
2018-11-26T04:25:04.466Z,100900.80
2018-11-26T04:27:32.739Z,100901.67
2018-11-26T04:30:01.019Z,100919.30
2018-11-26T04:32:29.293Z,100906.08
2018-11-26T04:34:57.528Z,100903.41
2018-11-26T04:37:25.799Z,100907.78
2018-11-26T04:39:54.036Z,100913.06
2018-11-26T04:42:22.269Z,100914.38
2018-11-26T04:44:50.513Z,100914.82
2018-11-26T04:47:18.790Z,100913.05
2018-11-26T04:49:47.023Z,100910.83
2018-11-26T04:52:15.275Z,100908.17
2018-11-26T04:54:51.076Z,100901.09
2018-11-26T04:57:19.305Z,100898.42
2018-11-26T04:59:47.550Z,100894.41
2018-11-26T05:02:15.853Z,100899.25
2018-11-26T05:04:44.080Z,100902.75
2018-11-26T05:07:12.305Z,100896.09
2018-11-26T05:09:40.550Z,100895.68
2018-11-26T05:12:08.874Z,100900.92
2018-11-26T05:14:37.107Z,100904.03
2018-11-26T05:17:05.632Z,100899.61
2018-11-26T05:19:33.908Z,100895.17
2018-11-26T05:22:02.151Z,100891.22
2018-11-26T05:24:30.413Z,100903.59
2018-11-26T05:26:58.642Z,100897.87
2018-11-26T05:29:26.914Z,100904.94
2018-11-26T05:31:55.159Z,100908.92
2018-11-26T05:34:23.391Z,100909.34
2018-11-26T05:36:51.757Z,100904.02
2018-11-26T05:39:20.008Z,100901.39
2018-11-26T05:41:48.238Z,100900.52
2018-11-26T05:44:16.933Z,100897.47
2018-11-26T05:46:45.158Z,100902.30
2018-11-26T05:49:13.417Z,100899.60
2018-11-26T05:51:41.662Z,100893.02
2018-11-26T05:54:09.943Z,100897.42
2018-11-26T05:56:38.161Z,100893.94
2018-11-26T05:59:06.441Z,100897.87
2018-11-26T06:01:34.667Z,100885.48
2018-11-26T06:04:02.943Z,100888.10
2018-11-26T06:06:31.168Z,100887.66
2018-11-26T06:08:59.412Z,100887.69
2018-11-26T06:11:27.631Z,100881.95
2018-11-26T06:13:55.864Z,100892.55
2018-11-26T06:16:24.094Z,100889.90
2018-11-26T06:18:52.336Z,100899.15
2018-11-26T06:21:20.576Z,100892.06
2018-11-26T06:23:48.869Z,100895.61
2018-11-26T06:26:36.478Z,100891.62
2018-11-26T06:29:04.729Z,100900.45
2018-11-26T06:31:32.961Z,100900.39
2018-11-26T06:34:01.237Z,100902.56
2018-11-26T06:36:29.487Z,100901.23
2018-11-26T06:38:57.712Z,100913.12
2018-11-26T06:41:25.986Z,100909.65
2018-11-26T06:43:54.232Z,100912.70
2018-11-26T06:46:22.469Z,100912.23
2018-11-26T06:48:50.716Z,100921.01
2018-11-26T06:51:18.976Z,100921.05
2018-11-26T06:53:47.270Z,100923.25
2018-11-26T06:56:15.499Z,100921.91
2018-11-26T06:58:43.744Z,100924.11
2018-11-26T07:01:12.101Z,100930.75
2018-11-26T07:03:40.335Z,100926.33
2018-11-26T07:06:08.601Z,100932.91
2018-11-26T07:08:36.833Z,100947.01
2018-11-26T07:11:05.333Z,100945.26
2018-11-26T07:13:33.586Z,100941.69
2018-11-26T07:16:01.857Z,100935.95
2018-11-26T07:18:30.070Z,100932.44
2018-11-26T07:20:58.339Z,100935.05
2018-11-26T07:23:26.576Z,100937.25
2018-11-26T07:25:54.824Z,100944.28
2018-11-26T07:28:23.071Z,100942.14
2018-11-26T07:30:51.348Z,100946.09
2018-11-26T07:33:19.780Z,100942.53
2018-11-26T07:35:48.028Z,100946.03
2018-11-26T07:38:16.282Z,100945.99
2018-11-26T07:40:44.532Z,100950.41
2018-11-26T07:43:13.965Z,100951.72
2018-11-26T07:45:42.228Z,100955.25
2018-11-26T07:48:11.530Z,100959.20
2018-11-26T07:50:39.888Z,100957.89
2018-11-26T07:53:09.422Z,100956.50
2018-11-26T07:55:38.359Z,100961.41
2018-11-26T07:58:06.665Z,100951.66
2018-11-26T08:00:34.913Z,100951.19
2018-11-26T08:03:03.187Z,100954.27
2018-11-26T08:05:31.424Z,100956.05
2018-11-26T08:07:59.686Z,100958.64
2018-11-26T08:10:27.897Z,100967.45
2018-11-26T08:12:56.229Z,100967.85
2018-11-26T08:15:25.475Z,100966.17
2018-11-26T08:17:53.778Z,100971.91
2018-11-26T08:20:22.033Z,100965.72
2018-11-26T08:22:50.289Z,100965.27
2018-11-26T08:25:20.043Z,100961.30
2018-11-26T08:27:48.979Z,100964.46
2018-11-26T08:30:36.678Z,100967.09
2018-11-26T08:33:05.295Z,100972.27
2018-11-26T08:35:33.537Z,100970.55
2018-11-26T08:38:20.873Z,100979.37
2018-11-26T08:40:49.717Z,100978.92
2018-11-26T08:43:37.088Z,100979.37
2018-11-26T08:46:24.442Z,100977.62
2018-11-26T08:49:11.819Z,100972.32
2018-11-26T08:51:40.451Z,100975.33
2018-11-26T08:54:08.703Z,100978.41
2018-11-26T08:56:36.928Z,100973.09
2018-11-26T08:59:05.547Z,100982.80
2018-11-26T09:01:42.235Z,100977.04
2018-11-26T09:04:10.513Z,100983.73
2018-11-26T09:06:38.996Z,100980.64
2018-11-26T09:09:26.773Z,100977.06
2018-11-26T09:11:54.926Z,100973.92
2018-11-26T09:14:23.202Z,100988.42
2018-11-26T09:16:51.424Z,100984.03
2018-11-26T09:19:19.678Z,100984.92
2018-11-26T09:21:48.064Z,100977.77
2018-11-26T09:24:16.204Z,100982.58
2018-11-26T09:26:44.426Z,100974.65
2018-11-26T09:29:13.251Z,100979.00
2018-11-26T09:31:40.931Z,100975.81
2018-11-26T09:34:09.168Z,100968.79
2018-11-26T09:36:37.410Z,100972.27
2018-11-26T09:39:10.115Z,100973.06
2018-11-26T09:41:38.855Z,100974.84
2018-11-26T09:44:07.466Z,100975.38
2018-11-26T09:46:36.331Z,100970.49
2018-11-26T09:49:04.593Z,100966.88
2018-11-26T09:51:32.871Z,100964.20
2018-11-26T09:54:01.098Z,100961.47
2018-11-26T09:56:29.364Z,100958.39
2018-11-26T09:58:57.649Z,100957.06
2018-11-26T10:01:25.884Z,100956.64
2018-11-26T10:03:54.135Z,100954.44
2018-11-26T10:06:22.400Z,100958.47
2018-11-26T10:08:50.612Z,100958.02
2018-11-26T10:11:18.883Z,100957.23
2018-11-26T10:13:47.137Z,100958.47
2018-11-26T10:16:15.411Z,100947.39
2018-11-26T10:18:43.652Z,100951.67
2018-11-26T10:21:11.944Z,100949.41
2018-11-26T10:23:40.194Z,100957.76
2018-11-26T10:26:08.474Z,100958.58
2018-11-26T10:28:36.722Z,100971.81
2018-11-26T10:31:05.007Z,100959.17
2018-11-26T10:33:33.266Z,100968.04
2018-11-26T10:36:01.484Z,100959.57
2018-11-26T10:38:29.723Z,100966.56
2018-11-26T10:40:57.952Z,100962.61
2018-11-26T10:43:26.195Z,100973.26
2018-11-26T10:45:54.472Z,100962.73
2018-11-26T10:48:22.719Z,100959.59
2018-11-26T10:50:50.970Z,100962.61
2018-11-26T10:53:19.199Z,100967.11
2018-11-26T10:55:47.460Z,100959.17
2018-11-26T10:58:15.707Z,100954.38
2018-11-26T11:01:03.089Z,100958.84
2018-11-26T11:03:31.335Z,100956.52
2018-11-26T11:05:59.575Z,100956.92
2018-11-26T11:08:47.238Z,100956.47
2018-11-26T11:11:16.474Z,100957.76
2018-11-26T11:13:43.821Z,100962.07
2018-11-26T11:16:12.119Z,100958.19
2018-11-26T11:18:40.318Z,100955.89
2018-11-26T11:21:08.584Z,100961.59
2018-11-26T11:23:36.817Z,100969.94
2018-11-26T11:26:05.524Z,100969.94
2018-11-26T11:28:33.864Z,100973.53
2018-11-26T11:31:02.095Z,100962.04
2018-11-26T11:33:30.353Z,100960.62
2018-11-26T11:35:58.609Z,100962.85
2018-11-26T11:38:26.862Z,100963.27
2018-11-26T11:40:55.204Z,100957.99
2018-11-26T11:43:23.491Z,100953.14
2018-11-26T11:45:51.760Z,100943.78
2018-11-26T11:48:20.052Z,100942.95
2018-11-26T11:50:48.270Z,100948.77
2018-11-26T11:53:16.633Z,100956.22
2018-11-26T11:55:44.870Z,100959.71
2018-11-26T11:58:13.117Z,100951.33
2018-11-26T12:00:42.662Z,100953.98
2018-11-26T12:03:30.339Z,100953.46
2018-11-26T12:05:58.611Z,100962.33
2018-11-26T12:08:26.881Z,100961.00
2018-11-26T12:10:55.125Z,100956.99
2018-11-26T12:13:23.370Z,100962.30
2018-11-26T12:15:52.665Z,100964.92
2018-11-26T12:18:21.012Z,100962.75
2018-11-26T12:20:49.238Z,100960.09
2018-11-26T12:23:17.574Z,100958.32
2018-11-26T12:25:45.803Z,100960.09
2018-11-26T12:28:14.047Z,100961.36
2018-11-26T12:31:02.476Z,100958.35
2018-11-26T12:33:30.751Z,100965.86
2018-11-26T12:35:58.979Z,100952.52
2018-11-26T12:38:27.222Z,100964.56
2018-11-26T12:40:55.469Z,100967.64
2018-11-26T12:43:23.742Z,100966.73
2018-11-26T12:45:51.992Z,100964.05
2018-11-26T12:48:20.255Z,100964.89
2018-11-26T12:50:48.486Z,100966.70
2018-11-26T12:53:16.790Z,100961.04
2018-11-26T12:55:45.039Z,100969.94
2018-11-26T12:58:13.372Z,100968.16
2018-11-26T13:00:41.720Z,100967.28
2018-11-26T13:03:29.339Z,100977.45
2018-11-26T13:05:57.648Z,100975.70
2018-11-26T13:08:25.828Z,100973.89
2018-11-26T13:10:54.083Z,100969.91
2018-11-26T13:13:22.309Z,100966.86
2018-11-26T13:15:50.560Z,100978.50
2018-11-26T13:18:18.780Z,100974.98
2018-11-26T13:20:47.056Z,100980.23
2018-11-26T13:23:15.333Z,100964.84
2018-11-26T13:25:43.594Z,100972.75
2018-11-26T13:28:11.844Z,100967.02
2018-11-26T13:30:41.818Z,100976.30
2018-11-26T13:33:14.566Z,100973.26
2018-11-26T13:35:42.985Z,100972.89
2018-11-26T13:38:11.211Z,100974.70
2018-11-26T13:40:39.471Z,100975.60
2018-11-26T13:43:09.110Z,100978.66
2018-11-26T13:45:41.710Z,100982.15
2018-11-26T13:48:11.085Z,100982.17
2018-11-26T13:50:41.302Z,100982.55
2018-11-26T13:53:09.532Z,100979.52
2018-11-26T13:55:37.800Z,100982.63
2018-11-26T13:58:06.031Z,100985.62
2018-11-26T14:00:34.319Z,100983.88
2018-11-26T14:03:02.533Z,100990.08
2018-11-26T14:05:31.021Z,100993.69
2018-11-26T14:07:59.260Z,100993.64
2018-11-26T14:10:28.135Z,100986.10
2018-11-26T14:13:16.140Z,100987.94
2018-11-26T14:15:44.415Z,100993.69
2018-11-26T14:18:12.633Z,100993.72
2018-11-26T14:20:40.933Z,101005.20
2018-11-26T14:23:09.162Z,101001.25
2018-11-26T14:25:37.420Z,101002.55
2018-11-26T14:28:06.284Z,101005.72
2018-11-26T14:30:34.189Z,101006.66
2018-11-26T14:33:02.418Z,101005.26
2018-11-26T14:35:30.662Z,101007.98
2018-11-26T14:38:18.365Z,101006.25
2018-11-26T14:40:48.448Z,101004.91
2018-11-26T14:43:16.724Z,101004.56
2018-11-26T14:45:44.973Z,101001.48
2018-11-26T14:48:13.270Z,101004.56
2018-11-26T14:50:41.500Z,101006.27
2018-11-26T14:53:11.778Z,101008.52
2018-11-26T14:55:40.013Z,101012.50
2018-11-26T14:58:08.264Z,101015.16
2018-11-26T15:00:36.523Z,101009.39
2018-11-26T15:03:05.084Z,101019.52
2018-11-26T15:05:33.314Z,101016.87
2018-11-26T15:08:01.581Z,101021.33
2018-11-26T15:10:29.826Z,101027.94
2018-11-26T15:12:58.067Z,101029.73
2018-11-26T15:15:27.261Z,101028.41
2018-11-26T15:17:55.519Z,101029.73
2018-11-26T15:20:25.360Z,101036.39
2018-11-26T15:22:54.629Z,101032.01
2018-11-26T15:25:26.917Z,101031.53
2018-11-26T15:28:14.645Z,101029.78
2018-11-26T15:30:42.929Z,101031.11
2018-11-26T15:33:11.180Z,101031.98
2018-11-26T15:35:39.412Z,101032.38
2018-11-26T15:38:07.935Z,101039.48
2018-11-26T15:40:36.212Z,101032.48
2018-11-26T15:43:04.564Z,101040.06
2018-11-26T15:45:32.955Z,101037.36
2018-11-26T15:48:02.744Z,101036.50
2018-11-26T15:50:31.011Z,101039.56
2018-11-26T15:52:59.262Z,101046.61
2018-11-26T15:55:27.511Z,101044.89
2018-11-26T15:57:55.788Z,101047.53
2018-11-26T16:00:25.494Z,101043.97
2018-11-26T16:02:53.924Z,101043.94
2018-11-26T16:05:41.638Z,101045.29
2018-11-26T16:08:14.247Z,101047.55
2018-11-26T16:10:42.484Z,101048.06
2018-11-26T16:13:12.987Z,101048.09
2018-11-26T16:15:42.471Z,101043.69
2018-11-26T16:18:29.971Z,101048.08
2018-11-26T16:20:58.289Z,101051.69
2018-11-26T16:23:26.538Z,101068.00
2018-11-26T16:25:54.787Z,101062.23
2018-11-26T16:28:23.988Z,101070.23
2018-11-26T16:30:52.671Z,101064.94
2018-11-26T16:33:20.979Z,101072.03
2018-11-26T16:35:49.169Z,101070.23
2018-11-26T16:38:17.488Z,101065.83
2018-11-26T16:40:45.790Z,101069.78
2018-11-26T16:43:14.021Z,101072.00
2018-11-26T16:45:42.303Z,101077.36
2018-11-26T16:48:10.566Z,101070.27
2018-11-26T16:50:38.851Z,101075.14
2018-11-26T16:53:07.805Z,101083.50
2018-11-26T16:55:36.179Z,101068.45
2018-11-26T16:58:04.832Z,101075.98
2018-11-26T17:00:33.018Z,101075.08
2018-11-26T17:03:02.034Z,101079.94
2018-11-26T17:05:49.734Z,101087.47
2018-11-26T17:08:17.971Z,101090.53
2018-11-26T17:10:46.223Z,101093.69
2018-11-26T17:13:14.903Z,101096.78
2018-11-26T17:15:43.285Z,101095.45
2018-11-26T17:18:11.507Z,101092.42
2018-11-26T17:20:39.815Z,101100.39
2018-11-26T17:23:08.395Z,101108.34
2018-11-26T17:25:36.644Z,101107.89
2018-11-26T17:28:04.903Z,101114.55
2018-11-26T17:30:33.183Z,101110.58
2018-11-26T17:33:02.855Z,101131.32
2018-11-26T17:35:31.651Z,101128.67
2018-11-26T17:37:59.937Z,101123.36
2018-11-26T17:40:28.202Z,101116.27
2018-11-26T17:42:56.682Z,101116.70
2018-11-26T17:45:25.416Z,101125.10
2018-11-26T17:47:55.008Z,101110.97
2018-11-26T17:50:46.361Z,101115.38
2018-11-26T17:53:18.876Z,101115.36
2018-11-26T17:56:07.112Z,101127.28
2018-11-26T17:58:35.367Z,101140.98
2018-11-26T18:01:42.457Z,101135.69
2018-11-26T18:04:10.835Z,101149.37
2018-11-26T18:06:39.080Z,101148.50
2018-11-26T18:09:26.756Z,101155.58
2018-11-26T18:11:55.048Z,101152.91
2018-11-26T18:14:23.306Z,101153.81
2018-11-26T18:16:51.582Z,101152.91
2018-11-26T18:19:19.800Z,101157.31
2018-11-26T18:21:48.080Z,101160.39
2018-11-26T18:24:16.316Z,101170.98
2018-11-26T18:26:44.580Z,101169.22
2018-11-26T18:29:12.810Z,101168.36
2018-11-26T18:31:41.327Z,101165.73
2018-11-26T18:34:09.638Z,101165.30
2018-11-26T18:36:37.912Z,101164.84
2018-11-26T18:39:09.260Z,101159.53
2018-11-26T18:41:37.488Z,101166.16
2018-11-26T18:44:06.538Z,101161.73
2018-11-26T18:46:34.916Z,101169.22
2018-11-26T18:49:03.181Z,101169.66
2018-11-26T18:51:31.411Z,101168.78
2018-11-26T18:53:59.685Z,101165.69
2018-11-26T18:56:27.921Z,101174.50
2018-11-26T18:58:56.191Z,101174.08
2018-11-26T19:01:24.429Z,101178.93
2018-11-26T19:03:52.679Z,101180.68
2018-11-26T19:06:20.970Z,101188.63
2018-11-26T19:08:49.228Z,101184.20
2018-11-26T19:11:18.425Z,101180.68
2018-11-26T19:14:07.461Z,101180.23
2018-11-26T19:16:37.887Z,101187.30
2018-11-26T19:19:06.408Z,101186.00
2018-11-26T19:21:34.648Z,101182.45
2018-11-26T19:24:02.926Z,101178.01
2018-11-26T19:26:31.145Z,101177.14
2018-11-26T19:28:59.396Z,101178.02
2018-11-26T19:31:27.655Z,101181.97
2018-11-26T19:33:55.959Z,101181.52
2018-11-26T19:36:24.203Z,101181.96
2018-11-26T19:38:52.477Z,101189.04
2018-11-26T19:41:20.700Z,101185.06
2018-11-26T19:43:48.947Z,101192.59
2018-11-26T19:46:17.177Z,101175.37
2018-11-26T19:48:45.468Z,101186.39
2018-11-26T19:51:13.721Z,101186.81
2018-11-26T19:53:41.973Z,101191.27
2018-11-26T19:56:10.280Z,101193.92
2018-11-26T19:58:38.525Z,101192.17
2018-11-26T20:01:06.797Z,101200.07
2018-11-26T20:03:37.510Z,101194.77
2018-11-26T20:06:25.402Z,101197.02
2018-11-26T20:09:13.087Z,101198.75
2018-11-26T20:11:41.371Z,101202.30
2018-11-26T20:14:09.618Z,101206.25
2018-11-26T20:16:40.352Z,101203.17
2018-11-26T20:19:08.617Z,101197.43
2018-11-26T20:21:36.874Z,101199.16
2018-11-26T20:24:05.212Z,101198.75
2018-11-26T20:26:33.426Z,101204.89
2018-11-26T20:29:01.674Z,101213.27
2018-11-26T20:31:29.972Z,101217.30
2018-11-26T20:33:58.192Z,101220.83
2018-11-26T20:36:26.466Z,101221.28
2018-11-26T20:38:54.724Z,101224.81
2018-11-26T20:41:22.984Z,101225.27
2018-11-26T20:43:51.293Z,101232.31
2018-11-26T20:46:19.512Z,101233.20
2018-11-26T20:48:47.762Z,101238.98
2018-11-26T20:51:16.083Z,101231.89
2018-11-26T20:53:44.268Z,101233.26
2018-11-26T20:56:16.981Z,101238.98
2018-11-26T20:58:46.141Z,101238.08
2018-11-26T21:01:14.544Z,101237.67
2018-11-26T21:03:42.803Z,101239.02
2018-11-26T21:06:11.805Z,101238.14
2018-11-26T21:08:39.288Z,101241.70
2018-11-26T21:11:07.582Z,101240.83
2018-11-26T21:13:35.804Z,101241.33
2018-11-26T21:16:04.107Z,101244.41
2018-11-26T21:18:32.357Z,101247.53
2018-11-26T21:21:00.627Z,101245.73
2018-11-26T21:23:48.341Z,101254.59
2018-11-26T21:26:16.618Z,101258.55
2018-11-26T21:28:44.865Z,101255.05
2018-11-26T21:31:13.156Z,101256.39
2018-11-26T21:33:41.409Z,101253.31
2018-11-26T21:36:09.645Z,101261.27
2018-11-26T21:38:39.684Z,101253.33
2018-11-26T21:41:08.049Z,101257.33
2018-11-26T21:43:36.302Z,101262.67
2018-11-26T21:46:04.867Z,101257.80
2018-11-26T21:48:33.129Z,101261.75
2018-11-26T21:51:01.409Z,101268.39
2018-11-26T21:53:29.669Z,101267.52
2018-11-26T21:55:57.908Z,101274.14
2018-11-26T21:58:26.153Z,101275.46
2018-11-26T22:00:56.049Z,101279.88
2018-11-26T22:03:24.326Z,101275.90
2018-11-26T22:05:52.599Z,101279.41
2018-11-26T22:08:20.839Z,101281.64
2018-11-26T22:10:49.144Z,101287.81
2018-11-26T22:13:19.218Z,101285.16
2018-11-26T22:15:47.510Z,101286.05
2018-11-26T22:18:15.782Z,101291.32
2018-11-26T22:20:44.031Z,101299.24
2018-11-26T22:23:12.355Z,101301.42
2018-11-26T22:25:40.608Z,101297.48
2018-11-26T22:28:10.164Z,101300.55
2018-11-26T22:30:39.109Z,101304.49
2018-11-26T22:33:07.555Z,101310.67
2018-11-26T22:35:35.830Z,101308.88
2018-11-26T22:38:04.046Z,101313.27
2018-11-26T22:40:32.320Z,101315.05
2018-11-26T22:43:00.543Z,101315.94
2018-11-26T22:45:48.637Z,101325.21
2018-11-26T22:48:16.888Z,101323.88
2018-11-26T22:50:45.704Z,101326.52
2018-11-26T22:53:13.925Z,101328.73
2018-11-26T22:55:42.173Z,101334.44
2018-11-26T22:58:29.828Z,101334.38
2018-11-26T23:00:58.111Z,101327.31
2018-11-26T23:03:27.002Z,101328.22
2018-11-26T23:05:55.251Z,101329.12
2018-11-26T23:08:23.480Z,101320.75
2018-11-26T23:10:51.733Z,101326.03
2018-11-26T23:13:19.958Z,101327.33
2018-11-26T23:15:48.220Z,101330.85
2018-11-26T23:18:16.498Z,101334.35
2018-11-26T23:20:44.772Z,101330.38
2018-11-26T23:23:12.997Z,101333.88
2018-11-26T23:25:41.240Z,101332.56
2018-11-26T23:28:09.465Z,101331.66
2018-11-26T23:30:37.708Z,101327.22
2018-11-26T23:33:06.930Z,101336.00
2018-11-26T23:35:35.210Z,101335.13
2018-11-26T23:38:03.438Z,101335.09
2018-11-26T23:40:31.686Z,101332.46
2018-11-26T23:42:59.917Z,101336.84
2018-11-26T23:45:29.088Z,101335.09
2018-11-26T23:47:57.312Z,101340.76
2018-11-26T23:50:25.563Z,101340.73
2018-11-26T23:52:53.785Z,101349.52
2018-11-26T23:55:23.140Z,101344.67
2018-11-26T23:57:51.368Z,101346.41
